Time;durP1;ratioP1;P1;durP2;ratioP2;P2;SDS_P1;SDS_P2;PMS_P1;PMS_P2;Temp;Humidity;BMP_temperature;BMP_pressure;BME280_temperature;BME280_humidity;BME280_pressure;Samples;Min_cycle;Max_cycle;Signal;HPM_P1;HPM_P2
2022/11/19 20:44:24;;;;;;;2.27;1.60;;;;;;;;;;5029550;28;1093626;-56
2022/11/19 20:46:50;;;;;;;2.90;1.52;;;;;;;;;;5079239;28;20041;-57
2022/11/19 20:49:16;;;;;;;2.63;1.60;;;;;;;;;;5070171;28;20043;-58
2022/11/19 20:51:43;;;;;;;2.55;1.65;;;;;;;;;;5073016;28;20033;-57
2022/11/19 20:54:09;;;;;;;3.50;1.90;;;;;;;;;;5074367;28;20041;-57
2022/11/19 20:56:36;;;;;;;2.15;1.60;;;;;;;;;;5078505;28;20024;-56
2022/11/19 20:59:03;;;;;;;1.35;1.20;;;;;;;;;;5091802;28;20028;-57
2022/11/19 21:01:29;;;;;;;3.00;1.67;;;;;;;;;;5062704;28;20486;-57
2022/11/19 21:03:56;;;;;;;2.17;1.35;;;;;;;;;;5070941;28;20040;-57
2022/11/19 21:06:22;;;;;;;2.05;1.60;;;;;;;;;;5071272;28;20035;-57
2022/11/19 21:08:48;;;;;;;2.22;1.48;;;;;;;;;;5071027;28;20111;-56
2022/11/19 21:11:14;;;;;;;1.92;1.50;;;;;;;;;;5074663;28;20040;-57
2022/11/19 21:13:41;;;;;;;3.05;1.80;;;;;;;;;;5081924;28;20046;-57
2022/11/19 21:16:08;;;;;;;2.15;1.50;;;;;;;;;;5054330;28;20037;-57
2022/11/19 21:18:35;;;;;;;2.13;1.55;;;;;;;;;;5050898;28;20045;-56
2022/11/19 21:21:02;;;;;;;2.55;1.90;;;;;;;;;;5068588;28;20394;-57
2022/11/19 21:23:30;;;;;;;2.50;1.60;;;;;;;;;;5083753;28;20067;-57
2022/11/19 21:26:00;;;;;;;1.25;1.13;;;;;;;;;;5073893;28;20028;-57
2022/11/19 21:28:27;;;;;;;2.67;1.17;;;;;;;;;;5058563;28;20021;-56
2022/11/19 21:30:53;;;;;;;1.70;1.60;;;;;;;;;;5053286;28;20031;-57
2022/11/19 21:33:19;;;;;;;1.75;1.30;;;;;;;;;;5072895;28;20033;-57
2022/11/19 21:35:45;;;;;;;1.48;1.13;;;;;;;;;;5070463;28;20033;-57
2022/11/19 21:38:11;;;;;;;3.75;1.63;;;;;;;;;;5072524;28;20048;-57
2022/11/19 21:40:38;;;;;;;1.35;1.17;;;;;;;;;;5071078;28;20051;-57
2022/11/19 21:43:04;;;;;;;1.70;1.50;;;;;;;;;;5070807;28;20115;-57
2022/11/19 21:45:30;;;;;;;2.08;1.40;;;;;;;;;;5068574;28;20040;-57
2022/11/19 21:47:56;;;;;;;1.58;1.30;;;;;;;;;;5073997;28;20530;-57
2022/11/19 21:50:22;;;;;;;1.75;1.30;;;;;;;;;;5070861;28;20105;-57
2022/11/19 21:52:48;;;;;;;4.13;1.70;;;;;;;;;;5070663;28;20503;-57
2022/11/19 21:55:14;;;;;;;2.65;1.20;;;;;;;;;;5052245;28;20035;-57
2022/11/19 21:57:40;;;;;;;1.80;1.13;;;;;;;;;;5069911;28;20108;-57
2022/11/19 22:00:07;;;;;;;2.40;1.30;;;;;;;;;;5070723;28;20035;-57
2022/11/19 22:02:33;;;;;;;1.33;0.98;;;;;;;;;;5070527;28;20112;-57
2022/11/19 22:04:59;;;;;;;1.83;1.00;;;;;;;;;;5070396;28;20682;-57
2022/11/19 22:07:25;;;;;;;1.77;1.10;;;;;;;;;;5070705;28;20037;-56
2022/11/19 22:09:51;;;;;;;1.40;0.95;;;;;;;;;;5070628;28;20043;-56
2022/11/19 22:12:17;;;;;;;1.35;0.93;;;;;;;;;;5070677;28;20068;-57
2022/11/19 22:14:42;;;;;;;1.45;1.00;;;;;;;;;;5070845;28;20029;-57
2022/11/19 22:17:08;;;;;;;1.00;0.80;;;;;;;;;;5074321;28;20033;-57
2022/11/19 22:19:34;;;;;;;1.58;1.20;;;;;;;;;;5073986;28;20116;-57
2022/11/19 22:22:02;;;;;;;2.35;1.27;;;;;;;;;;5074071;28;20043;-57
2022/11/19 22:24:28;;;;;;;1.25;1.05;;;;;;;;;;5074145;28;20036;-56
2022/11/19 22:26:54;;;;;;;1.33;0.95;;;;;;;;;;5074084;28;20535;-57
2022/11/19 22:29:20;;;;;;;3.15;1.30;;;;;;;;;;5074187;28;20029;-57
2022/11/19 22:31:46;;;;;;;1.17;1.08;;;;;;;;;;5074166;28;20044;-57
2022/11/19 22:34:12;;;;;;;4.72;1.13;;;;;;;;;;5073842;28;20086;-57
2022/11/19 22:36:38;;;;;;;1.27;1.17;;;;;;;;;;5073832;28;20074;-57
2022/11/19 22:39:04;;;;;;;1.67;1.10;;;;;;;;;;5073926;28;20111;-57
2022/11/19 22:41:30;;;;;;;0.90;0.90;;;;;;;;;;5073747;28;20032;-57
2022/11/19 22:43:57;;;;;;;1.10;0.82;;;;;;;;;;5073770;28;20039;-57
2022/11/19 22:46:23;;;;;;;0.75;0.70;;;;;;;;;;5073713;28;20052;-57
2022/11/19 22:48:49;;;;;;;1.60;1.00;;;;;;;;;;5073424;28;20035;-57
2022/11/19 22:51:19;;;;;;;0.95;0.85;;;;;;;;;;5055617;28;20044;-57
2022/11/19 22:53:45;;;;;;;1.23;0.98;;;;;;;;;;5055016;28;20041;-55
2022/11/19 22:56:13;;;;;;;1.45;1.00;;;;;;;;;;5069762;28;20060;-56
2022/11/19 22:58:39;;;;;;;1.10;1.00;;;;;;;;;;5048548;28;20032;-57
2022/11/19 23:01:06;;;;;;;1.20;0.85;;;;;;;;;;5073248;28;20036;-57
2022/11/19 23:03:32;;;;;;;1.70;0.90;;;;;;;;;;5065353;28;20392;-57
2022/11/19 23:05:58;;;;;;;1.27;1.08;;;;;;;;;;5053118;28;20619;-57
2022/11/19 23:08:24;;;;;;;2.67;1.35;;;;;;;;;;5053242;28;20033;-57
2022/11/19 23:11:00;;;;;;;2.13;1.15;;;;;;;;;;5053082;28;20057;-57
2022/11/19 23:13:30;;;;;;;1.63;1.00;;;;;;;;;;5062764;28;20033;-57
2022/11/19 23:15:56;;;;;;;1.27;1.10;;;;;;;;;;5072889;28;20032;-56
2022/11/19 23:18:22;;;;;;;1.25;1.10;;;;;;;;;;5072768;28;20369;-57
2022/11/19 23:20:48;;;;;;;1.23;0.95;;;;;;;;;;5066678;28;20072;-57
2022/11/19 23:23:14;;;;;;;1.98;1.13;;;;;;;;;;5057818;28;20053;-57
2022/11/19 23:25:40;;;;;;;1.90;1.08;;;;;;;;;;5062635;28;20060;-56
2022/11/19 23:28:06;;;;;;;1.42;1.02;;;;;;;;;;5063721;28;20488;-57
2022/11/19 23:30:33;;;;;;;1.10;1.00;;;;;;;;;;5064273;28;20036;-57
2022/11/19 23:32:59;;;;;;;2.13;1.30;;;;;;;;;;5072866;28;20102;-57
2022/11/19 23:35:25;;;;;;;1.90;1.55;;;;;;;;;;5062373;28;20484;-57
2022/11/19 23:37:50;;;;;;;1.67;1.13;;;;;;;;;;5052810;28;20029;-57
2022/11/19 23:40:17;;;;;;;1.77;1.40;;;;;;;;;;5060824;28;20112;-57
2022/11/19 23:42:42;;;;;;;1.48;1.20;;;;;;;;;;5073021;28;20028;-57
2022/11/19 23:45:09;;;;;;;1.73;1.15;;;;;;;;;;5070781;28;20594;-56
2022/11/19 23:47:36;;;;;;;2.45;1.30;;;;;;;;;;5072505;28;20036;-57
2022/11/19 23:50:03;;;;;;;1.80;1.13;;;;;;;;;;5072609;28;20527;-57
2022/11/19 23:52:29;;;;;;;1.33;1.10;;;;;;;;;;5072566;28;20094;-57
2022/11/19 23:54:55;;;;;;;2.15;1.13;;;;;;;;;;5072466;28;20032;-57
2022/11/19 23:57:21;;;;;;;1.40;1.10;;;;;;;;;;5072466;28;20025;-57
2022/11/19 23:59:47;;;;;;;1.58;1.25;;;;;;;;;;5065586;28;20040;-57
